createdAt,value
2023-04-11T00:01:09.855Z,17.20
2023-04-11T00:03:39.555Z,17.10
2023-04-11T00:06:09.962Z,17.10
2023-04-11T00:08:38.354Z,17.10
2023-04-11T00:11:07.340Z,17.10
2023-04-11T00:13:37.341Z,17.00
2023-04-11T00:16:07.961Z,17.00
2023-04-11T00:18:37.936Z,17.00
2023-04-11T00:21:07.124Z,16.90
2023-04-11T00:23:36.969Z,16.90
2023-04-11T00:26:05.639Z,16.90
2023-04-11T00:28:33.990Z,16.90
2023-04-11T00:31:03.048Z,16.80
2023-04-11T00:33:32.674Z,16.80
2023-04-11T00:36:01.881Z,16.80
2023-04-11T00:38:30.961Z,16.80
2023-04-11T00:41:01.628Z,16.80
2023-04-11T00:43:30.696Z,16.70
2023-04-11T00:45:59.918Z,16.80
2023-04-11T00:48:28.790Z,16.70
2023-04-11T00:50:57.297Z,16.70
2023-04-11T00:53:25.758Z,16.60
2023-04-11T00:55:54.280Z,16.60
2023-04-11T00:58:24.090Z,16.60
2023-04-11T01:00:52.485Z,16.60
2023-04-11T01:03:21.357Z,16.50
2023-04-11T01:05:52.417Z,16.50
2023-04-11T01:08:22.484Z,16.50
2023-04-11T01:10:51.087Z,16.40
2023-04-11T01:13:19.926Z,16.40
2023-04-11T01:15:49.818Z,16.40
2023-04-11T01:18:18.216Z,16.40
2023-04-11T01:20:46.572Z,16.40
2023-04-11T01:23:16.037Z,16.40
2023-04-11T01:25:46.050Z,16.30
2023-04-11T01:28:14.377Z,16.30
2023-04-11T01:30:42.798Z,16.30
2023-04-11T01:33:12.018Z,16.30
2023-04-11T01:35:40.858Z,16.30
2023-04-11T01:38:09.596Z,16.20
2023-04-11T01:40:39.402Z,16.20
2023-04-11T01:43:10.097Z,16.20
2023-04-11T01:45:38.829Z,16.10
2023-04-11T01:48:08.572Z,16.10
2023-04-11T01:50:37.066Z,16.20
2023-04-11T01:53:05.777Z,16.20
2023-04-11T01:55:34.129Z,16.10
2023-04-11T01:58:02.524Z,16.10
2023-04-11T02:00:32.572Z,16.10
2023-04-11T02:03:01.041Z,16.10
2023-04-11T02:05:30.018Z,16.10
2023-04-11T02:07:58.429Z,16.00
2023-04-11T02:10:26.843Z,16.00
2023-04-11T02:12:55.291Z,16.00
2023-04-11T02:15:23.659Z,15.90
2023-04-11T02:17:54.322Z,15.90
2023-04-11T02:20:23.382Z,15.90
2023-04-11T02:22:51.747Z,15.90
2023-04-11T02:25:20.264Z,15.90
2023-04-11T02:27:48.689Z,15.80
2023-04-11T02:30:17.332Z,15.80
2023-04-11T02:32:47.007Z,15.80
2023-04-11T02:35:17.456Z,15.80
2023-04-11T02:37:45.835Z,15.80
2023-04-11T02:40:14.478Z,15.80
2023-04-11T02:42:43.367Z,15.70
2023-04-11T02:45:12.996Z,15.70
2023-04-11T02:47:41.357Z,15.70
2023-04-11T02:50:10.985Z,15.70
2023-04-11T02:52:42.442Z,15.70
2023-04-11T02:55:12.383Z,15.60
2023-04-11T02:57:41.099Z,15.60
2023-04-11T03:00:11.167Z,15.60
2023-04-11T03:02:39.848Z,15.60
2023-04-11T03:05:10.092Z,15.60
2023-04-11T03:07:40.806Z,15.50
2023-04-11T03:10:11.485Z,15.50
2023-04-11T03:12:40.314Z,15.50
2023-04-11T03:15:10.361Z,15.60
2023-04-11T03:17:39.062Z,15.50
2023-04-11T03:20:11.902Z,15.50
2023-04-11T03:22:41.184Z,15.50
2023-04-11T03:25:11.448Z,15.50
2023-04-11T03:27:40.104Z,15.40
2023-04-11T03:30:09.863Z,15.40
2023-04-11T03:32:38.309Z,15.40
2023-04-11T03:35:07.368Z,15.40
2023-04-11T03:37:36.569Z,15.40
2023-04-11T03:40:08.458Z,15.30
2023-04-11T03:42:38.412Z,15.30
2023-04-11T03:45:08.354Z,15.30
2023-04-11T03:47:36.911Z,15.30
2023-04-11T03:50:06.006Z,15.30
2023-04-11T03:52:34.404Z,15.20
2023-04-11T03:55:03.523Z,15.20
2023-04-11T03:57:32.419Z,15.20
2023-04-11T04:00:02.320Z,15.20
2023-04-11T04:02:30.773Z,15.20
2023-04-11T04:04:59.521Z,15.20
2023-04-11T04:07:28.285Z,15.20
2023-04-11T04:09:56.696Z,15.20
2023-04-11T04:12:26.080Z,15.20
2023-04-11T04:14:54.420Z,15.20
2023-04-11T04:17:24.893Z,15.20
2023-04-11T04:19:53.334Z,15.20
2023-04-11T04:22:22.419Z,15.10
2023-04-11T04:24:51.917Z,15.10
2023-04-11T04:27:20.289Z,15.10
2023-04-11T04:29:54.093Z,15.10
2023-04-11T04:32:33.693Z,15.00
2023-04-11T04:35:02.610Z,15.10
2023-04-11T04:37:31.037Z,15.00
2023-04-11T04:40:07.622Z,15.00
2023-04-11T04:42:37.529Z,15.00
2023-04-11T04:45:06.662Z,15.00
2023-04-11T04:47:38.456Z,15.00
2023-04-11T04:50:07.850Z,15.00
2023-04-11T04:52:36.507Z,15.00
2023-04-11T04:55:05.292Z,15.00
2023-04-11T04:57:33.662Z,14.90
2023-04-11T05:00:02.029Z,14.90
2023-04-11T05:02:30.909Z,14.90
2023-04-11T05:05:04.446Z,14.90
2023-04-11T05:07:32.775Z,14.90
2023-04-11T05:10:01.126Z,14.90
2023-04-11T05:12:29.695Z,14.90
2023-04-11T05:14:58.179Z,14.90
2023-04-11T05:17:28.924Z,14.80
2023-04-11T05:19:57.279Z,14.80
2023-04-11T05:22:27.286Z,14.80
2023-04-11T05:24:57.028Z,14.80
2023-04-11T05:27:25.940Z,14.80
2023-04-11T05:29:54.578Z,14.80
2023-04-11T05:32:22.988Z,14.80
2023-04-11T05:34:58.726Z,14.80
2023-04-11T05:37:31.392Z,14.80
2023-04-11T05:40:00.313Z,14.80
2023-04-11T05:42:28.829Z,14.80
2023-04-11T05:44:57.328Z,14.80
2023-04-11T05:47:25.752Z,14.80
2023-04-11T05:49:54.095Z,14.80
2023-04-11T05:52:22.416Z,14.80
2023-04-11T05:54:52.101Z,14.80
2023-04-11T05:57:21.148Z,14.80
2023-04-11T05:59:49.992Z,14.80
2023-04-11T06:02:18.534Z,14.80
2023-04-11T06:04:47.176Z,14.80
2023-04-11T06:07:15.732Z,14.80
2023-04-11T06:09:44.363Z,14.80
2023-04-11T06:12:14.042Z,14.80
2023-04-11T06:14:42.466Z,14.80
2023-04-11T06:17:10.783Z,14.80
2023-04-11T06:19:39.488Z,14.80
2023-04-11T06:22:07.864Z,14.80
2023-04-11T06:24:37.383Z,14.80
2023-04-11T06:27:06.297Z,14.80
2023-04-11T06:29:36.025Z,14.80
2023-04-11T06:32:04.465Z,14.80
2023-04-11T06:34:32.860Z,14.80
2023-04-11T06:37:01.463Z,14.80
2023-04-11T06:39:30.715Z,14.80
2023-04-11T06:41:59.487Z,14.90
2023-04-11T06:44:28.100Z,14.90
2023-04-11T06:46:59.367Z,14.90
2023-04-11T06:49:29.322Z,14.90
2023-04-11T06:51:57.804Z,14.90
2023-04-11T06:54:26.376Z,14.90
2023-04-11T06:56:54.719Z,15.00
2023-04-11T06:59:24.676Z,15.00
2023-04-11T07:01:53.397Z,15.00
2023-04-11T07:04:24.141Z,15.00
2023-04-11T07:06:53.162Z,15.00
2023-04-11T07:09:21.596Z,15.00
2023-04-11T07:11:50.172Z,15.00
2023-04-11T07:14:18.578Z,15.00
2023-04-11T07:16:46.995Z,15.00
2023-04-11T07:19:15.422Z,15.00
2023-04-11T07:21:45.495Z,15.00
2023-04-11T07:24:14.421Z,15.10
2023-04-11T07:26:42.740Z,15.10
2023-04-11T07:29:13.141Z,15.10
2023-04-11T07:31:45.152Z,15.10
2023-04-11T07:34:13.685Z,15.20
2023-04-11T07:36:42.909Z,15.20
2023-04-11T07:39:15.138Z,15.20
2023-04-11T07:41:43.479Z,15.20
2023-04-11T07:44:12.347Z,15.20
2023-04-11T07:46:41.538Z,15.20
2023-04-11T07:49:09.876Z,15.30
2023-04-11T07:51:38.247Z,15.30
2023-04-11T07:54:07.507Z,15.30
2023-04-11T07:56:37.311Z,15.30
2023-04-11T07:59:05.811Z,15.30
2023-04-11T08:01:34.794Z,15.30
2023-04-11T08:04:03.696Z,15.30
2023-04-11T08:06:32.714Z,15.40
2023-04-11T08:09:01.420Z,15.40
2023-04-11T08:11:30.046Z,15.40
2023-04-11T08:13:59.989Z,15.40
2023-04-11T08:16:28.540Z,15.40
2023-04-11T08:18:57.448Z,15.50
2023-04-11T08:21:26.320Z,15.50
2023-04-11T08:23:55.095Z,15.50
2023-04-11T08:26:23.876Z,15.50
2023-04-11T08:28:52.534Z,15.50
2023-04-11T08:31:23.197Z,15.50
2023-04-11T08:33:51.921Z,15.50
2023-04-11T08:36:20.469Z,15.50
2023-04-11T08:38:48.969Z,15.60
2023-04-11T08:41:17.563Z,15.60
2023-04-11T08:43:47.168Z,15.60
2023-04-11T08:46:18.743Z,15.60
2023-04-11T08:48:48.639Z,15.60
2023-04-11T08:51:23.255Z,15.70
2023-04-11T08:53:54.153Z,15.70
2023-04-11T08:56:22.837Z,15.80
2023-04-11T08:58:51.220Z,15.80
2023-04-11T09:01:32.870Z,15.90
2023-04-11T09:04:09.049Z,15.90
2023-04-11T09:06:40.560Z,16.00
2023-04-11T09:09:13.777Z,16.00
2023-04-11T09:11:54.944Z,16.00
2023-04-11T09:14:28.235Z,16.00
2023-04-11T09:17:00.496Z,16.00
2023-04-11T09:19:33.777Z,16.00
2023-04-11T09:22:08.772Z,16.10
2023-04-11T09:24:39.374Z,16.10
2023-04-11T09:27:11.023Z,16.20
2023-04-11T09:29:46.145Z,16.30
2023-04-11T09:32:34.774Z,16.30
2023-04-11T09:35:19.119Z,16.40
2023-04-11T09:37:50.213Z,16.40
2023-04-11T09:40:22.110Z,16.50
2023-04-11T09:42:58.970Z,16.50
2023-04-11T09:45:32.263Z,16.60
2023-04-11T09:48:06.118Z,16.60
2023-04-11T09:50:37.825Z,16.60
2023-04-11T09:53:08.534Z,16.70
2023-04-11T09:55:40.300Z,16.70
2023-04-11T09:58:12.952Z,16.70
2023-04-11T10:00:42.472Z,16.70
2023-04-11T10:03:10.962Z,16.70
2023-04-11T10:05:41.411Z,16.80
2023-04-11T10:08:18.614Z,16.80
2023-04-11T10:10:46.968Z,16.80
2023-04-11T10:13:39.950Z,16.80
2023-04-11T10:16:09.841Z,16.90
2023-04-11T10:18:38.462Z,16.90
2023-04-11T10:21:42.434Z,17.00
2023-04-11T10:24:13.460Z,17.00
2023-04-11T10:26:51.934Z,17.00
2023-04-11T10:29:50.656Z,17.00
2023-04-11T10:32:26.545Z,17.00
2023-04-11T10:35:34.486Z,17.00
2023-04-11T10:38:04.179Z,17.10
2023-04-11T10:40:32.637Z,17.10
2023-04-11T10:43:22.174Z,17.10
2023-04-11T10:46:21.565Z,17.10
2023-04-11T10:48:58.850Z,17.10
2023-04-11T10:51:28.367Z,17.20
2023-04-11T10:53:59.746Z,17.20
2023-04-11T10:56:56.144Z,17.20
2023-04-11T11:00:00.804Z,17.10
2023-04-11T11:02:41.754Z,17.10
2023-04-11T11:05:21.326Z,17.20
2023-04-11T11:07:51.075Z,17.30
2023-04-11T11:10:42.041Z,17.30
2023-04-11T11:13:10.891Z,17.30
2023-04-11T11:15:39.857Z,17.40
2023-04-11T11:18:10.480Z,17.40
2023-04-11T11:20:39.732Z,17.40
2023-04-11T11:23:09.735Z,17.50
2023-04-11T11:25:38.576Z,17.60
2023-04-11T11:28:10.232Z,17.60
2023-04-11T11:30:39.052Z,17.60
2023-04-11T11:33:26.693Z,17.60
2023-04-11T11:35:57.822Z,17.60
2023-04-11T11:38:28.451Z,17.60
2023-04-11T11:40:57.513Z,17.60
2023-04-11T11:43:28.455Z,17.60
2023-04-11T11:46:15.237Z,17.60
2023-04-11T11:48:44.945Z,17.60
2023-04-11T11:51:14.245Z,17.60
2023-04-11T11:53:42.809Z,17.60
2023-04-11T11:56:15.631Z,17.60
2023-04-11T11:58:46.141Z,17.60
2023-04-11T12:01:17.298Z,17.50
2023-04-11T12:03:48.237Z,17.50
2023-04-11T12:06:17.338Z,17.50
2023-04-11T12:08:50.313Z,17.60
2023-04-11T12:11:19.558Z,17.50
2023-04-11T12:13:54.288Z,17.50
2023-04-11T12:16:23.715Z,17.50
2023-04-11T12:18:52.145Z,17.50
2023-04-11T12:21:20.788Z,17.50
2023-04-11T12:23:49.047Z,17.50
2023-04-11T12:26:20.994Z,17.50
2023-04-11T12:28:51.221Z,17.60
2023-04-11T12:31:20.244Z,17.60
2023-04-11T12:33:48.590Z,17.60
2023-04-11T12:36:16.859Z,17.60
2023-04-11T12:38:45.149Z,17.60
2023-04-11T12:41:30.368Z,17.60
2023-04-11T12:44:02.534Z,17.60
2023-04-11T12:46:31.000Z,17.60
2023-04-11T12:48:59.726Z,17.60
2023-04-11T12:51:28.189Z,17.60
2023-04-11T12:53:56.586Z,17.60
2023-04-11T12:56:25.071Z,17.60
2023-04-11T12:58:53.520Z,17.60
2023-04-11T13:01:23.650Z,17.60
2023-04-11T13:03:53.858Z,17.60
2023-04-11T13:06:23.410Z,17.50
2023-04-11T13:08:51.737Z,17.50
2023-04-11T13:11:24.197Z,17.60
2023-04-11T13:13:54.166Z,17.60
2023-04-11T13:16:24.885Z,17.60
2023-04-11T13:18:54.469Z,17.60
2023-04-11T13:21:24.594Z,17.60
2023-04-11T13:23:53.917Z,17.60
2023-04-11T13:26:24.781Z,17.60
2023-04-11T13:28:55.358Z,17.70
2023-04-11T13:31:26.793Z,17.70
2023-04-11T13:33:55.124Z,17.80
2023-04-11T13:36:23.810Z,17.90
2023-04-11T13:38:52.470Z,18.00
2023-04-11T13:41:20.897Z,18.10
2023-04-11T13:43:50.036Z,18.10
2023-04-11T13:46:18.432Z,18.10
2023-04-11T13:48:48.328Z,18.10
2023-04-11T13:51:16.641Z,18.20
2023-04-11T13:53:44.959Z,18.30
2023-04-11T13:56:13.222Z,18.60
2023-04-11T13:58:41.809Z,18.70
2023-04-11T14:01:10.553Z,19.10
2023-04-11T14:03:39.136Z,19.50
2023-04-11T14:06:10.043Z,19.90
2023-04-11T14:08:38.319Z,20.10
2023-04-11T14:11:06.855Z,20.20
2023-04-11T14:13:35.099Z,20.20
2023-04-11T14:16:08.853Z,20.30
2023-04-11T14:18:38.151Z,20.60
2023-04-11T14:21:08.655Z,20.60
2023-04-11T14:23:37.219Z,20.30
2023-04-11T14:26:05.914Z,20.10
2023-04-11T14:28:34.205Z,20.00
2023-04-11T14:31:02.585Z,19.80
2023-04-11T14:33:31.533Z,19.70
2023-04-11T14:35:59.822Z,19.70
2023-04-11T14:38:29.558Z,19.70
2023-04-11T14:40:57.846Z,19.80
2023-04-11T14:43:26.979Z,20.10
2023-04-11T14:45:57.566Z,20.60
2023-04-11T14:48:27.257Z,20.80
2023-04-11T14:50:55.976Z,21.00
2023-04-11T14:53:24.618Z,21.20
2023-04-11T14:55:54.427Z,21.40
2023-04-11T14:58:22.789Z,21.50
2023-04-11T15:00:52.235Z,21.40
2023-04-11T15:03:20.832Z,21.40
2023-04-11T15:05:49.260Z,21.30
2023-04-11T15:08:17.585Z,21.40
2023-04-11T15:10:45.936Z,21.30
2023-04-11T15:13:15.979Z,21.20
2023-04-11T15:15:44.363Z,21.10
2023-04-11T15:18:23.950Z,20.90
2023-04-11T15:20:52.634Z,20.80
2023-04-11T15:23:22.185Z,20.60
2023-04-11T15:25:55.388Z,20.60
2023-04-11T15:28:25.975Z,20.50
2023-04-11T15:30:55.707Z,20.50
2023-04-11T15:33:24.693Z,20.50
2023-04-11T15:35:54.412Z,20.40
2023-04-11T15:38:22.816Z,20.40
2023-04-11T15:40:51.491Z,20.40
2023-04-11T15:43:20.037Z,20.40
2023-04-11T15:45:49.909Z,20.30
2023-04-11T15:48:18.571Z,20.20
2023-04-11T15:50:47.156Z,20.20
2023-04-11T15:53:15.432Z,20.10
2023-04-11T15:55:44.897Z,20.00
2023-04-11T15:58:13.172Z,19.90
2023-04-11T16:00:44.037Z,19.90
2023-04-11T16:03:16.819Z,19.80
2023-04-11T16:05:45.760Z,19.80
2023-04-11T16:08:14.186Z,19.70
2023-04-11T16:10:42.475Z,19.70
2023-04-11T16:13:10.998Z,19.60
2023-04-11T16:15:39.308Z,19.60
2023-04-11T16:18:07.672Z,19.50
2023-04-11T16:20:37.391Z,19.40
2023-04-11T16:23:05.750Z,19.40
2023-04-11T16:25:34.025Z,19.30
2023-04-11T16:28:02.300Z,19.30
2023-04-11T16:30:30.586Z,19.30
2023-04-11T16:32:58.984Z,19.20
2023-04-11T16:35:27.368Z,19.20
2023-04-11T16:37:57.095Z,19.20
2023-04-11T16:40:25.609Z,19.20
2023-04-11T16:42:53.912Z,19.20
2023-04-11T16:45:22.331Z,19.10
2023-04-11T16:47:50.660Z,19.10
2023-04-11T16:50:19.450Z,19.10
2023-04-11T16:52:47.832Z,19.00
2023-04-11T16:55:18.432Z,19.00
2023-04-11T16:57:46.806Z,19.00
2023-04-11T17:00:19.996Z,18.90
2023-04-11T17:02:48.477Z,18.90
2023-04-11T17:05:19.261Z,18.90
2023-04-11T17:07:47.598Z,18.90
2023-04-11T17:10:17.479Z,18.90
2023-04-11T17:12:45.865Z,18.90
2023-04-11T17:15:14.122Z,18.90
2023-04-11T17:17:42.440Z,18.80
2023-04-11T17:20:12.264Z,18.80
2023-04-11T17:22:43.179Z,18.80
2023-04-11T17:25:13.519Z,18.80
2023-04-11T17:27:43.353Z,18.70
2023-04-11T17:30:12.457Z,18.70
2023-04-11T17:32:40.813Z,18.70
2023-04-11T17:35:09.682Z,18.70
2023-04-11T17:37:37.989Z,18.70
2023-04-11T17:40:12.475Z,18.70
2023-04-11T17:42:42.600Z,18.70
2023-04-11T17:45:17.556Z,18.70
2023-04-11T17:47:47.202Z,18.70
2023-04-11T17:50:16.588Z,18.60
2023-04-11T17:52:46.837Z,18.60
2023-04-11T17:55:19.065Z,18.60
2023-04-11T17:57:49.955Z,18.60
2023-04-11T18:00:22.859Z,18.60
2023-04-11T18:02:52.594Z,18.50
2023-04-11T18:05:24.995Z,18.50
2023-04-11T18:07:54.875Z,18.50
2023-04-11T18:10:23.355Z,18.50
2023-04-11T18:12:54.567Z,18.50
2023-04-11T18:15:26.199Z,18.40
2023-04-11T18:17:55.141Z,18.40
2023-04-11T18:20:23.738Z,18.40
2023-04-11T18:22:56.246Z,18.40
2023-04-11T18:25:25.416Z,18.30
2023-04-11T18:27:55.104Z,18.30
2023-04-11T18:30:23.460Z,18.30
2023-04-11T18:32:53.898Z,18.30
2023-04-11T18:35:22.791Z,18.30
2023-04-11T18:37:51.861Z,18.30
2023-04-11T18:40:20.794Z,18.20
2023-04-11T18:42:52.226Z,18.20
2023-04-11T18:45:23.316Z,18.20
2023-04-11T18:47:51.759Z,18.10
2023-04-11T18:50:21.496Z,18.10
2023-04-11T18:52:53.868Z,18.10
2023-04-11T18:55:24.551Z,18.10
2023-04-11T18:57:56.393Z,18.10
2023-04-11T19:00:28.788Z,18.10
2023-04-11T19:02:57.226Z,18.00
2023-04-11T19:05:25.909Z,18.00
2023-04-11T19:07:54.311Z,18.00
2023-04-11T19:10:22.704Z,17.90
2023-04-11T19:12:50.994Z,17.90
2023-04-11T19:15:20.022Z,17.90
2023-04-11T19:17:49.806Z,17.90
2023-04-11T19:20:19.241Z,17.90
2023-04-11T19:22:47.724Z,17.90
2023-04-11T19:25:16.166Z,17.90
2023-04-11T19:27:44.597Z,17.90
2023-04-11T19:30:14.817Z,17.80
2023-04-11T19:32:47.743Z,17.80
2023-04-11T19:35:21.634Z,17.80
2023-04-11T19:37:50.111Z,17.80
2023-04-11T19:40:23.197Z,17.80
2023-04-11T19:42:51.706Z,17.80
2023-04-11T19:45:20.653Z,17.80
2023-04-11T19:47:49.100Z,17.80
2023-04-11T19:50:19.446Z,17.80
2023-04-11T19:52:48.130Z,17.80
2023-04-11T19:55:16.762Z,17.70
2023-04-11T19:57:45.107Z,17.70
2023-04-11T20:00:17.179Z,17.70
2023-04-11T20:02:48.617Z,17.70
2023-04-11T20:05:21.739Z,17.70
2023-04-11T20:07:50.128Z,17.70
2023-04-11T20:10:18.822Z,17.70
2023-04-11T20:12:47.345Z,17.70
2023-04-11T20:15:16.095Z,17.70
2023-04-11T20:17:46.317Z,17.70
2023-04-11T20:20:15.802Z,17.70
2023-04-11T20:22:46.173Z,17.70
2023-04-11T20:25:14.882Z,17.60
2023-04-11T20:27:44.535Z,17.60
2023-04-11T20:30:14.222Z,17.60
2023-04-11T20:32:42.744Z,17.60
2023-04-11T20:35:12.845Z,17.50
2023-04-11T20:37:43.531Z,17.60
2023-04-11T20:40:14.875Z,17.60
2023-04-11T20:42:45.963Z,17.50
2023-04-11T20:45:16.328Z,17.60
2023-04-11T20:47:46.429Z,17.60
2023-04-11T20:50:17.030Z,17.50
2023-04-11T20:52:47.370Z,17.50
2023-04-11T20:55:18.225Z,17.50
2023-04-11T20:57:46.679Z,17.50
2023-04-11T21:00:17.386Z,17.50
2023-04-11T21:02:47.608Z,17.50
2023-04-11T21:05:18.227Z,17.50
2023-04-11T21:07:46.987Z,17.50
2023-04-11T21:10:17.222Z,17.50
2023-04-11T21:12:51.702Z,17.50
2023-04-11T21:15:21.665Z,17.50
2023-04-11T21:17:50.474Z,17.50
2023-04-11T21:20:20.041Z,17.50
2023-04-11T21:22:49.664Z,17.50
2023-04-11T21:25:20.351Z,17.50
2023-04-11T21:27:49.907Z,17.50
2023-04-11T21:30:18.703Z,17.50
2023-04-11T21:32:47.416Z,17.50
2023-04-11T21:35:15.904Z,17.50
2023-04-11T21:37:45.463Z,17.50
2023-04-11T21:40:15.046Z,17.50
2023-04-11T21:42:44.967Z,17.50
2023-04-11T21:45:13.501Z,17.50
2023-04-11T21:47:41.813Z,17.50
2023-04-11T21:50:11.701Z,17.40
2023-04-11T21:52:40.437Z,17.40
2023-04-11T21:55:09.599Z,17.40
2023-04-11T21:57:38.023Z,17.40
2023-04-11T22:00:11.132Z,17.40
2023-04-11T22:02:40.254Z,17.40
2023-04-11T22:05:10.030Z,17.40
2023-04-11T22:07:47.608Z,17.40
2023-04-11T22:10:23.782Z,17.40
2023-04-11T22:12:54.593Z,17.40
2023-04-11T22:15:25.037Z,17.40
2023-04-11T22:17:56.452Z,17.40
2023-04-11T22:20:25.145Z,17.40
2023-04-11T22:22:53.392Z,17.40
2023-04-11T22:25:22.515Z,17.40
2023-04-11T22:27:54.926Z,17.40
2023-04-11T22:30:24.971Z,17.30
2023-04-11T22:32:54.495Z,17.30
2023-04-11T22:35:23.386Z,17.40
2023-04-11T22:37:53.742Z,17.30
2023-04-11T22:40:23.166Z,17.30
2023-04-11T22:42:52.425Z,17.30
2023-04-11T22:45:21.921Z,17.30
2023-04-11T22:47:54.554Z,17.30
2023-04-11T22:50:23.068Z,17.30
2023-04-11T22:52:51.473Z,17.30
2023-04-11T22:55:21.278Z,17.30
2023-04-11T22:57:49.714Z,17.30
2023-04-11T23:00:19.246Z,17.30
2023-04-11T23:02:47.805Z,17.30
2023-04-11T23:05:17.902Z,17.30
2023-04-11T23:07:46.420Z,17.30
2023-04-11T23:10:15.461Z,17.30
2023-04-11T23:12:44.566Z,17.30
2023-04-11T23:15:13.381Z,17.20
2023-04-11T23:17:41.875Z,17.20
2023-04-11T23:20:13.042Z,17.20
2023-04-11T23:22:44.095Z,17.20
2023-04-11T23:25:14.141Z,17.20
2023-04-11T23:27:42.997Z,17.20
2023-04-11T23:30:12.615Z,17.20
2023-04-11T23:32:41.582Z,17.10
2023-04-11T23:35:10.686Z,17.20
2023-04-11T23:37:38.999Z,17.20
2023-04-11T23:40:14.102Z,17.20
2023-04-11T23:42:42.883Z,17.10
2023-04-11T23:45:14.384Z,17.20
2023-04-11T23:47:42.767Z,17.10
2023-04-11T23:50:12.250Z,17.10
2023-04-11T23:52:40.897Z,17.10
2023-04-11T23:55:11.107Z,17.10
2023-04-11T23:57:39.457Z,17.10
